createdAt,value
2022-12-05T00:01:42.846Z,45.33
2022-12-05T00:04:12.173Z,41.65
2022-12-05T00:06:40.438Z,41.35
2022-12-05T00:09:09.570Z,43.42
2022-12-05T00:11:39.247Z,45.33
2022-12-05T00:14:07.595Z,42.55
2022-12-05T00:16:36.733Z,42.80
2022-12-05T00:19:05.146Z,44.35
2022-12-05T00:21:34.211Z,42.35
2022-12-05T00:24:02.028Z,45.42
2022-12-05T00:26:28.896Z,47.15
2022-12-05T00:28:57.793Z,46.00
2022-12-05T00:31:25.455Z,43.25
2022-12-05T00:33:52.742Z,43.80
2022-12-05T00:36:24.867Z,43.63
2022-12-05T00:38:53.597Z,42.40
2022-12-05T00:41:23.736Z,45.15
2022-12-05T00:43:51.722Z,42.70
2022-12-05T00:46:29.538Z,42.17
2022-12-05T00:48:57.964Z,42.60
2022-12-05T00:51:45.366Z,39.47
2022-12-05T00:54:15.131Z,45.03
2022-12-05T00:56:42.653Z,39.55
2022-12-05T00:59:09.527Z,41.83
2022-12-05T01:01:41.182Z,38.45
2022-12-05T01:04:11.405Z,40.40
2022-12-05T01:06:38.753Z,41.38
2022-12-05T01:09:07.769Z,35.60
2022-12-05T01:11:40.971Z,39.17
2022-12-05T01:14:09.719Z,40.10
2022-12-05T01:16:39.733Z,37.60
2022-12-05T01:19:12.768Z,36.17
2022-12-05T01:21:41.182Z,33.17
2022-12-05T01:24:10.318Z,35.20
2022-12-05T01:26:38.933Z,35.88
2022-12-05T01:29:05.985Z,37.22
2022-12-05T01:31:36.197Z,35.45
2022-12-05T01:34:06.186Z,35.63
2022-12-05T01:36:33.901Z,37.17
2022-12-05T01:39:01.836Z,36.40
2022-12-05T01:41:32.439Z,34.10
2022-12-05T01:44:07.365Z,32.00
2022-12-05T01:46:37.108Z,32.25
2022-12-05T01:49:14.575Z,30.75
2022-12-05T01:51:46.587Z,31.85
2022-12-05T01:54:15.310Z,30.30
2022-12-05T01:56:46.563Z,31.38
2022-12-05T01:59:13.707Z,32.17
2022-12-05T02:01:41.671Z,33.67
2022-12-05T02:04:09.264Z,30.77
2022-12-05T02:06:36.518Z,31.58
2022-12-05T02:09:05.660Z,30.08
2022-12-05T02:11:34.818Z,28.45
2022-12-05T02:14:50.140Z,32.60
2022-12-05T02:17:40.082Z,30.55
2022-12-05T02:20:36.650Z,28.67
2022-12-05T02:23:33.559Z,29.80
2022-12-05T02:26:52.490Z,27.17
2022-12-05T02:30:17.766Z,29.83
2022-12-05T02:32:54.101Z,26.98
2022-12-05T02:35:42.010Z,24.60
2022-12-05T02:38:32.869Z,27.70
2022-12-05T02:41:09.294Z,26.55
2022-12-05T02:43:45.970Z,27.83
2022-12-05T02:46:20.083Z,24.00
2022-12-05T02:51:15.681Z,24.77
2022-12-05T02:53:44.040Z,24.02
2022-12-05T02:56:11.294Z,29.27
2022-12-05T02:58:48.987Z,26.30
2022-12-05T03:01:15.943Z,25.73
2022-12-05T03:03:42.974Z,28.38
2022-12-05T03:06:34.030Z,25.45
2022-12-05T03:09:21.634Z,24.17
2022-12-05T03:11:51.915Z,24.40
2022-12-05T03:14:23.603Z,23.77
2022-12-05T03:16:57.718Z,24.27
2022-12-05T03:19:28.237Z,28.83
2022-12-05T03:22:23.210Z,25.95
2022-12-05T03:24:50.705Z,26.83
2022-12-05T03:27:42.996Z,26.70
2022-12-05T03:30:12.863Z,24.33
2022-12-05T03:33:14.255Z,25.33
2022-12-05T03:36:12.119Z,26.33
2022-12-05T03:38:58.507Z,24.40
2022-12-05T03:42:03.415Z,24.65
2022-12-05T03:44:58.127Z,24.45
2022-12-05T03:49:59.665Z,24.05
2022-12-05T03:52:45.929Z,21.95
2022-12-05T03:55:21.188Z,28.23
2022-12-05T03:57:56.710Z,23.42
2022-12-05T04:00:25.383Z,23.92
2022-12-05T04:03:12.650Z,23.10
2022-12-05T04:05:45.605Z,21.98
2022-12-05T04:08:28.920Z,24.58
2022-12-05T04:11:00.745Z,20.25
2022-12-05T04:13:35.083Z,22.38
2022-12-05T04:16:27.563Z,23.92
2022-12-05T04:19:02.365Z,20.90
2022-12-05T04:21:40.398Z,21.35
2022-12-05T04:24:33.557Z,23.50
2022-12-05T04:27:10.619Z,22.52
2022-12-05T04:30:00.116Z,21.38
2022-12-05T04:32:41.438Z,23.73
2022-12-05T04:35:14.106Z,20.60
2022-12-05T04:37:43.333Z,19.77
2022-12-05T04:40:20.176Z,22.05
2022-12-05T04:42:48.846Z,21.45
2022-12-05T04:45:18.139Z,23.42
2022-12-05T04:47:50.859Z,21.23
2022-12-05T04:50:18.518Z,21.20
2022-12-05T04:52:50.140Z,26.58
2022-12-05T04:55:25.961Z,23.40
2022-12-05T04:58:12.038Z,21.75
2022-12-05T05:01:12.794Z,22.60
2022-12-05T05:03:50.701Z,24.80
2022-12-05T05:06:18.472Z,20.38
2022-12-05T05:08:54.998Z,27.02
2022-12-05T05:11:28.255Z,20.25
2022-12-05T05:13:55.866Z,21.63
2022-12-05T05:16:29.022Z,24.70
2022-12-05T05:18:57.183Z,21.90
2022-12-05T05:21:32.931Z,21.77
2022-12-05T05:24:00.116Z,21.92
2022-12-05T05:26:29.447Z,23.30
2022-12-05T05:28:58.733Z,22.48
2022-12-05T05:31:25.970Z,21.13
2022-12-05T05:33:54.593Z,25.58
2022-12-05T05:36:23.309Z,24.63
2022-12-05T05:38:53.017Z,20.25
2022-12-05T05:41:24.794Z,22.40
2022-12-05T05:43:52.316Z,21.83
2022-12-05T05:46:23.052Z,23.08
2022-12-05T05:48:50.265Z,21.30
2022-12-05T05:51:19.181Z,26.38
2022-12-05T05:53:46.337Z,26.98
2022-12-05T05:56:21.852Z,23.88
2022-12-05T05:58:50.634Z,22.75
2022-12-05T06:01:22.968Z,24.38
2022-12-05T06:03:51.258Z,23.30
2022-12-05T06:06:20.891Z,20.95
2022-12-05T06:08:48.273Z,25.17
2022-12-05T06:11:24.891Z,18.73
2022-12-05T06:13:54.724Z,22.88
2022-12-05T06:16:22.383Z,25.10
2022-12-05T06:18:50.314Z,25.23
2022-12-05T06:21:17.404Z,21.25
2022-12-05T06:23:44.536Z,25.42
2022-12-05T06:26:13.676Z,22.13
2022-12-05T06:28:41.823Z,21.67
2022-12-05T06:31:14.976Z,24.95
2022-12-05T06:33:42.914Z,24.17
2022-12-05T06:36:15.827Z,24.15
2022-12-05T06:38:43.959Z,22.88
2022-12-05T06:41:17.561Z,21.88
2022-12-05T06:43:46.112Z,23.63
2022-12-05T06:46:16.188Z,26.15
2022-12-05T06:48:44.241Z,22.38
2022-12-05T06:51:13.094Z,23.98
2022-12-05T06:53:41.246Z,28.60
2022-12-05T06:56:14.570Z,22.25
2022-12-05T06:58:47.716Z,23.42
2022-12-05T07:01:36.934Z,24.80
2022-12-05T07:04:16.128Z,24.55
2022-12-05T07:06:50.247Z,21.38
2022-12-05T07:09:20.746Z,25.90
2022-12-05T07:11:51.637Z,23.13
2022-12-05T07:14:50.578Z,22.35
2022-12-05T07:17:07.568Z,24.92
2022-12-05T07:19:35.563Z,23.75
2022-12-05T07:22:03.769Z,29.13
2022-12-05T07:24:31.770Z,28.40
2022-12-05T07:26:58.497Z,25.48
2022-12-05T07:29:26.168Z,24.98
2022-12-05T07:31:54.805Z,25.08
2022-12-05T07:34:22.272Z,24.42
2022-12-05T07:36:50.264Z,27.50
2022-12-05T07:39:17.519Z,29.30
2022-12-05T07:41:44.364Z,29.48
2022-12-05T07:44:14.800Z,26.90
2022-12-05T07:46:45.113Z,23.73
2022-12-05T07:49:17.088Z,23.73
2022-12-05T07:51:46.811Z,26.95
2022-12-05T07:54:15.922Z,25.50
2022-12-05T07:56:47.512Z,29.70
2022-12-05T07:59:16.679Z,25.13
2022-12-05T08:01:43.808Z,24.83
2022-12-05T08:04:15.260Z,27.92
2022-12-05T08:06:44.236Z,27.63
2022-12-05T08:09:12.400Z,27.85
2022-12-05T08:11:39.328Z,28.30
2022-12-05T08:14:07.079Z,29.73
2022-12-05T08:16:37.194Z,30.52
2022-12-05T08:19:08.447Z,29.60
2022-12-05T08:21:37.677Z,29.35
2022-12-05T08:24:07.498Z,29.08
2022-12-05T08:26:38.342Z,34.67
2022-12-05T08:29:11.481Z,29.90
2022-12-05T08:31:45.129Z,26.65
2022-12-05T08:34:13.392Z,28.07
2022-12-05T08:36:42.578Z,27.65
2022-12-05T08:39:15.443Z,24.58
2022-12-05T08:41:46.698Z,26.40
2022-12-05T08:44:19.044Z,27.50
2022-12-05T08:46:49.121Z,26.38
2022-12-05T08:49:16.573Z,24.75
2022-12-05T08:51:45.763Z,26.95
2022-12-05T08:54:16.048Z,24.42
2022-12-05T08:56:46.011Z,24.80
2022-12-05T08:59:15.984Z,27.13
2022-12-05T09:01:45.946Z,27.42
2022-12-05T09:04:17.280Z,28.65
2022-12-05T09:06:46.388Z,27.98
2022-12-05T09:09:14.266Z,35.55
2022-12-05T09:11:47.974Z,31.23
2022-12-05T09:14:16.222Z,28.87
2022-12-05T09:16:46.442Z,29.42
2022-12-05T09:19:19.260Z,28.25
2022-12-05T09:21:48.795Z,30.02
2022-12-05T09:24:16.285Z,31.52
2022-12-05T09:26:43.123Z,29.15
2022-12-05T09:29:16.210Z,31.23
2022-12-05T09:31:45.041Z,30.02
2022-12-05T09:34:14.392Z,30.52
2022-12-05T09:36:42.713Z,34.58
2022-12-05T09:39:11.444Z,34.75
2022-12-05T09:42:09.610Z,27.98
2022-12-05T09:45:08.218Z,25.25
2022-12-05T09:48:14.551Z,26.48
2022-12-05T09:50:57.039Z,27.92
2022-12-05T09:53:35.070Z,28.83
2022-12-05T09:56:37.388Z,28.50
2022-12-05T09:59:05.906Z,31.30
2022-12-05T10:01:44.305Z,29.95
2022-12-05T10:04:58.553Z,30.55
2022-12-05T10:08:21.813Z,35.83
2022-12-05T10:11:01.589Z,36.15
2022-12-05T10:13:49.758Z,33.53
2022-12-05T10:16:26.060Z,35.05
2022-12-05T10:21:56.991Z,33.80
2022-12-05T10:24:31.301Z,32.30
2022-12-05T10:27:01.267Z,33.92
2022-12-05T10:29:32.026Z,38.67
2022-12-05T10:32:20.632Z,32.03
2022-12-05T10:34:47.694Z,38.10
2022-12-05T10:37:22.824Z,36.58
2022-12-05T10:39:52.035Z,41.28
2022-12-05T10:42:26.702Z,37.20
2022-12-05T10:44:59.600Z,40.75
2022-12-05T10:47:26.761Z,34.00
2022-12-05T10:49:55.543Z,44.17
2022-12-05T10:52:23.920Z,35.35
2022-12-05T10:55:04.195Z,37.42
2022-12-05T10:57:31.000Z,39.50
2022-12-05T10:59:57.984Z,40.72
2022-12-05T11:02:28.007Z,41.40
2022-12-05T11:04:56.567Z,40.45
2022-12-05T11:07:48.428Z,39.00
2022-12-05T11:10:30.125Z,39.17
2022-12-05T11:12:58.790Z,38.30
2022-12-05T11:15:30.117Z,31.88
2022-12-05T11:18:00.528Z,31.77
2022-12-05T11:20:39.123Z,33.05
2022-12-05T11:23:23.447Z,33.50
2022-12-05T11:25:50.910Z,31.52
2022-12-05T11:28:25.603Z,32.90
2022-12-05T11:31:32.917Z,28.45
2022-12-05T11:34:20.621Z,29.67
2022-12-05T11:36:51.609Z,35.67
2022-12-05T11:39:18.470Z,30.38
2022-12-05T11:42:04.605Z,29.10
2022-12-05T11:45:11.822Z,29.77
2022-12-05T11:48:17.158Z,31.85
2022-12-05T11:51:13.294Z,27.48
2022-12-05T11:53:51.640Z,28.02
2022-12-05T11:56:39.482Z,26.58
2022-12-05T11:59:25.042Z,26.60
2022-12-05T12:02:29.090Z,33.28
2022-12-05T12:05:19.289Z,27.30
2022-12-05T12:07:54.372Z,29.33
2022-12-05T12:10:33.501Z,30.58
2022-12-05T12:13:10.375Z,28.25
2022-12-05T12:16:19.342Z,27.88
2022-12-05T12:19:19.048Z,29.02
2022-12-05T12:21:59.473Z,28.67
2022-12-05T12:24:57.759Z,30.65
2022-12-05T12:28:21.068Z,31.58
2022-12-05T12:31:21.464Z,34.90
2022-12-05T12:34:09.960Z,30.35
2022-12-05T12:36:47.001Z,32.08
2022-12-05T12:39:46.616Z,30.75
2022-12-05T12:45:52.185Z,29.92
2022-12-05T12:48:45.268Z,29.63
2022-12-05T12:51:13.544Z,28.83
2022-12-05T12:54:34.367Z,27.88
2022-12-05T12:57:47.332Z,27.45
2022-12-05T13:01:06.750Z,25.95
2022-12-05T13:03:39.982Z,25.98
2022-12-05T13:06:16.556Z,24.35
2022-12-05T13:08:51.057Z,27.75
2022-12-05T13:11:18.644Z,27.98
2022-12-05T13:13:54.614Z,25.63
2022-12-05T13:16:28.162Z,29.00
2022-12-05T13:18:56.095Z,24.08
2022-12-05T13:21:23.149Z,23.80
2022-12-05T13:23:52.453Z,27.23
2022-12-05T13:26:19.255Z,25.38
2022-12-05T13:28:58.627Z,24.23
2022-12-05T13:31:45.639Z,24.52
2022-12-05T13:34:39.855Z,24.70
2022-12-05T13:38:03.292Z,25.02
2022-12-05T13:40:56.563Z,26.55
2022-12-05T13:43:26.174Z,30.05
2022-12-05T13:46:05.266Z,26.90
2022-12-05T13:48:34.590Z,24.05
2022-12-05T13:51:06.060Z,25.20
2022-12-05T13:53:38.187Z,23.70
2022-12-05T13:56:53.012Z,22.27
2022-12-05T13:59:57.458Z,24.00
2022-12-05T14:03:05.035Z,27.15
2022-12-05T14:05:45.847Z,29.85
2022-12-05T14:08:44.987Z,30.20
2022-12-05T14:11:12.366Z,27.77
2022-12-05T14:13:42.107Z,23.27
2022-12-05T14:16:46.959Z,24.52
2022-12-05T14:19:33.984Z,23.08
2022-12-05T14:22:14.792Z,22.58
2022-12-05T14:25:04.037Z,22.70
2022-12-05T14:27:56.419Z,21.38
2022-12-05T14:30:34.786Z,25.05
2022-12-05T14:33:02.212Z,23.98
2022-12-05T14:35:43.386Z,28.10
2022-12-05T14:38:20.214Z,26.58
2022-12-05T14:40:47.449Z,28.20
2022-12-05T14:43:33.319Z,29.42
2022-12-05T14:46:02.505Z,31.75
2022-12-05T14:48:34.804Z,28.92
2022-12-05T14:51:02.297Z,28.67
2022-12-05T14:53:38.280Z,29.75
2022-12-05T14:56:41.577Z,32.70
2022-12-05T14:59:29.271Z,30.55
2022-12-05T15:02:03.465Z,30.40
2022-12-05T15:04:42.804Z,28.08
2022-12-05T15:07:13.139Z,25.77
2022-12-05T15:10:14.533Z,30.42
2022-12-05T15:13:14.975Z,28.30
2022-12-05T15:15:47.300Z,30.98
2022-12-05T15:18:39.828Z,27.73
2022-12-05T15:21:27.022Z,28.00
2022-12-05T15:24:00.075Z,25.90
2022-12-05T15:26:56.248Z,25.95
2022-12-05T15:29:28.082Z,28.48
2022-12-05T15:32:06.812Z,30.20
2022-12-05T15:34:56.833Z,27.25
2022-12-05T15:37:26.689Z,26.10
2022-12-05T15:40:13.659Z,27.65
2022-12-05T15:42:51.848Z,27.33
2022-12-05T15:45:29.165Z,23.40
2022-12-05T15:48:12.896Z,25.10
2022-12-05T15:50:42.312Z,28.53
2022-12-05T15:53:40.038Z,23.33
2022-12-05T15:56:15.478Z,26.83
2022-12-05T15:58:52.306Z,24.73
2022-12-05T16:01:26.127Z,24.98
2022-12-05T16:04:00.037Z,24.58
2022-12-05T16:06:44.779Z,24.48
2022-12-05T16:09:20.598Z,24.55
2022-12-05T16:11:52.328Z,25.45
2022-12-05T16:14:50.943Z,26.58
2022-12-05T16:17:07.361Z,24.42
2022-12-05T16:19:34.075Z,26.23
2022-12-05T16:22:09.958Z,33.22
2022-12-05T16:24:45.509Z,34.30
2022-12-05T16:27:18.289Z,33.40
2022-12-05T16:29:45.878Z,37.10
2022-12-05T16:32:21.973Z,32.75
2022-12-05T16:34:48.981Z,30.83
2022-12-05T16:37:26.162Z,33.05
2022-12-05T16:39:53.540Z,31.88
2022-12-05T16:42:27.901Z,29.73
2022-12-05T16:45:03.928Z,33.35
2022-12-05T16:48:14.542Z,31.45
2022-12-05T16:50:41.320Z,27.58
2022-12-05T16:53:21.759Z,30.15
2022-12-05T16:55:48.920Z,27.08
2022-12-05T16:58:23.343Z,30.23
2022-12-05T17:00:50.545Z,27.77
2022-12-05T17:03:34.914Z,24.38
2022-12-05T17:06:02.340Z,25.30
2022-12-05T17:08:29.055Z,24.73
2022-12-05T17:10:55.869Z,23.10
2022-12-05T17:13:22.738Z,23.30
2022-12-05T17:15:49.490Z,26.20
2022-12-05T17:18:18.254Z,26.40
2022-12-05T17:20:50.284Z,24.77
2022-12-05T17:23:17.330Z,25.38
2022-12-05T17:25:52.553Z,24.05
2022-12-05T17:28:19.455Z,25.98
2022-12-05T17:30:46.296Z,24.70
2022-12-05T17:33:15.008Z,28.80
2022-12-05T17:35:42.009Z,27.98
2022-12-05T17:38:10.923Z,32.63
2022-12-05T17:40:38.381Z,30.85
2022-12-05T17:43:05.802Z,32.88
2022-12-05T17:45:33.540Z,28.55
2022-12-05T17:48:00.300Z,29.45
2022-12-05T17:50:27.818Z,28.15
2022-12-05T17:53:02.806Z,27.05
2022-12-05T17:55:32.527Z,29.48
2022-12-05T17:57:59.460Z,26.08
2022-12-05T18:00:26.237Z,29.50
2022-12-05T18:02:53.341Z,26.83
2022-12-05T18:05:21.838Z,28.17
2022-12-05T18:07:50.146Z,28.15
2022-12-05T18:10:19.422Z,26.13
2022-12-05T18:12:46.757Z,24.25
2022-12-05T18:15:14.443Z,19.50
2022-12-05T18:17:41.722Z,18.30
2022-12-05T18:20:10.577Z,16.17
2022-12-05T18:22:37.334Z,17.30
2022-12-05T18:25:05.465Z,14.85
2022-12-05T18:27:33.297Z,11.75
2022-12-05T18:29:59.939Z,13.48
2022-12-05T18:32:26.721Z,10.13
2022-12-05T18:34:53.424Z,10.95
2022-12-05T18:37:20.239Z,10.80
2022-12-05T18:39:46.926Z,10.57
2022-12-05T18:42:15.406Z,11.05
2022-12-05T18:44:42.418Z,12.05
2022-12-05T18:47:09.434Z,15.18
2022-12-05T18:49:36.156Z,16.50
2022-12-05T18:52:03.260Z,20.48
2022-12-05T18:54:30.034Z,17.67
2022-12-05T18:56:56.735Z,19.50
2022-12-05T18:59:23.693Z,24.45
2022-12-05T19:01:50.846Z,16.40
2022-12-05T19:04:20.173Z,15.95
2022-12-05T19:06:53.322Z,15.52
2022-12-05T19:09:23.778Z,12.10
2022-12-05T19:11:52.113Z,16.80
2022-12-05T19:14:19.565Z,46.83
2022-12-05T19:16:49.219Z,48.00
2022-12-05T19:19:17.624Z,27.17
2022-12-05T19:21:45.101Z,14.25
2022-12-05T19:24:14.114Z,11.57
2022-12-05T19:26:41.390Z,12.65
2022-12-05T19:29:08.510Z,22.13
2022-12-05T19:31:38.072Z,19.73
2022-12-05T19:34:06.823Z,19.92
2022-12-05T19:36:36.065Z,12.23
2022-12-05T19:39:27.123Z,10.48
2022-12-05T19:41:55.337Z,11.82
2022-12-05T19:44:22.044Z,12.70
2022-12-05T19:46:49.682Z,11.70
2022-12-05T19:49:17.478Z,10.13
2022-12-05T19:51:44.431Z,10.75
2022-12-05T19:54:12.778Z,10.30
2022-12-05T19:56:39.613Z,17.05
2022-12-05T19:59:06.862Z,17.80
2022-12-05T20:01:36.349Z,14.23
2022-12-05T20:04:06.276Z,11.20
2022-12-05T20:06:35.645Z,9.68
2022-12-05T20:09:03.007Z,9.48
2022-12-05T20:11:31.537Z,10.55
2022-12-05T20:14:00.120Z,11.57
2022-12-05T20:16:28.721Z,10.25
2022-12-05T20:18:58.291Z,9.82
2022-12-05T20:21:26.910Z,12.02
2022-12-05T20:23:55.782Z,11.10
2022-12-05T20:26:25.232Z,9.45
2022-12-05T20:28:52.106Z,10.77
2022-12-05T20:31:23.692Z,10.32
2022-12-05T20:33:51.510Z,12.82
2022-12-05T20:36:23.793Z,10.63
2022-12-05T20:38:58.532Z,12.43
2022-12-05T20:41:25.504Z,10.50
2022-12-05T20:43:54.993Z,12.48
2022-12-05T20:46:22.687Z,13.75
2022-12-05T20:48:50.598Z,13.07
2022-12-05T20:51:28.370Z,10.13
2022-12-05T20:53:55.468Z,12.23
2022-12-05T20:56:28.478Z,12.00
2022-12-05T20:58:57.049Z,13.60
2022-12-05T21:01:25.061Z,15.90
2022-12-05T21:03:52.629Z,13.18
2022-12-05T21:06:23.278Z,14.98
2022-12-05T21:08:51.138Z,13.07
2022-12-05T21:11:18.029Z,12.35
2022-12-05T21:13:46.333Z,14.35
2022-12-05T21:16:16.748Z,13.38
2022-12-05T21:18:43.725Z,14.38
2022-12-05T21:21:21.347Z,11.13
2022-12-05T21:23:53.280Z,13.65
2022-12-05T21:26:19.997Z,11.35
2022-12-05T21:28:46.777Z,11.45
2022-12-05T21:31:22.658Z,10.68
2022-12-05T21:34:00.234Z,12.25
2022-12-05T21:36:28.675Z,12.57
2022-12-05T21:38:56.525Z,12.82
2022-12-05T21:41:24.792Z,12.98
2022-12-05T21:43:54.945Z,11.43
2022-12-05T21:46:23.577Z,12.15
2022-12-05T21:48:50.595Z,11.98
2022-12-05T21:51:17.515Z,10.93
2022-12-05T21:53:44.303Z,14.32
2022-12-05T21:56:15.663Z,15.35
2022-12-05T21:58:43.265Z,16.45
2022-12-05T22:01:11.256Z,15.98
2022-12-05T22:03:38.707Z,15.13
2022-12-05T22:06:07.506Z,15.02
2022-12-05T22:08:34.827Z,14.82
2022-12-05T22:11:12.533Z,14.18
2022-12-05T22:13:39.287Z,13.43
2022-12-05T22:16:07.174Z,13.40
2022-12-05T22:18:34.221Z,16.08
2022-12-05T22:21:03.996Z,16.75
2022-12-05T22:23:31.662Z,16.83
2022-12-05T22:26:04.236Z,14.15
2022-12-05T22:28:31.327Z,15.95
2022-12-05T22:31:01.050Z,14.73
2022-12-05T22:33:28.460Z,14.52
2022-12-05T22:35:57.029Z,16.73
2022-12-05T22:38:24.787Z,14.32
2022-12-05T22:40:59.219Z,12.32
2022-12-05T22:43:26.813Z,14.10
2022-12-05T22:45:53.780Z,15.07
2022-12-05T22:48:20.621Z,14.18
2022-12-05T22:50:57.863Z,18.30
2022-12-05T22:53:25.110Z,20.00
2022-12-05T22:55:51.908Z,20.42
2022-12-05T22:58:18.847Z,17.45
2022-12-05T23:00:46.405Z,19.02
2022-12-05T23:03:13.259Z,15.23
2022-12-05T23:05:41.535Z,15.95
2022-12-05T23:08:08.696Z,14.90
2022-12-05T23:10:35.548Z,12.88
2022-12-05T23:13:02.304Z,14.88
2022-12-05T23:15:29.153Z,15.35
2022-12-05T23:17:56.478Z,15.02
2022-12-05T23:20:23.295Z,14.38
2022-12-05T23:22:50.348Z,18.75
2022-12-05T23:25:17.089Z,18.75
2022-12-05T23:27:44.240Z,15.70
2022-12-05T23:30:12.140Z,12.70
2022-12-05T23:32:38.895Z,14.82
2022-12-05T23:35:06.142Z,15.23
2022-12-05T23:37:32.922Z,14.77
2022-12-05T23:39:59.861Z,11.85
2022-12-05T23:42:28.094Z,14.35
2022-12-05T23:44:54.783Z,13.23
2022-12-05T23:47:21.522Z,12.77
2022-12-05T23:49:48.226Z,15.65
2022-12-05T23:52:14.970Z,13.88
2022-12-05T23:54:44.790Z,13.00
2022-12-05T23:57:17.267Z,14.75
2022-12-05T23:59:44.851Z,13.48
